Station Historical Data
Daily Summary for November 23, 2017 Units:  Metric    English   Both
« Previous Day
Next Day »
Daily Weekly Monthly Yearly Custom
  High: Low: Average:
Temperature: 3.4 °C -3.8 °C 0.7 °C
Dew Point: -2.5 °C -7.7 °C -4.6 °C
Humidity: 76% 63% 68%
Wind Speed: 19.3km/h 0km/h 4.8km/h
Wind Gust: 25.7km/h - -
Wind- - SW
Pressure: 1023.2 hPa 1014.8 hPa -
Precipitation: 0 mm    
Historical Graphs
 
 
Tabular Data for November 23, 2017
Time Temperature Dew Point Pressure Wind Wind Speed Wind Gust Humidity Rainfall Rate (Hourly)
00:04 -3.8 °C -7.7 °C 1022.9 hPa Calm     74% 0 mm
00:14 -3.7 °C -7.5 °C 1023.2 hPa Calm     75% 0 mm
00:34 -3.3 °C -7.3 °C 1023.2 hPa Calm     74% 0 mm
00:39 -3.1 °C -7.2 °C 1022.9 hPa Calm     73% 0 mm
00:44 -2.8 °C -7.2 °C 1022.9 hPa Calm   3.2 km/h 72% 0 mm
00:54 -2.5 °C -7.1 °C 1022.9 hPa WSW 1.6 km/h 4.8 km/h 71% 0 mm
01:09 -2.1 °C -7.1 °C 1022.6 hPa West 3.2 km/h 6.4 km/h 69% 0 mm
01:14 -2 °C -7.1 °C 1022.6 hPa West 3.2 km/h 6.4 km/h 68% 0 mm
01:19 -1.9 °C -7.1 °C 1022.6 hPa WSW 3.2 km/h 6.4 km/h 68% 0 mm
01:34 -1.8 °C -7.1 °C 1022.2 hPa WNW 1.6 km/h 4.8 km/h 67% 0 mm
01:39 -1.8 °C -7.1 °C 1022.2 hPa WNW 1.6 km/h 4.8 km/h 67% 0 mm
01:44 -1.8 °C -6.9 °C 1022.6 hPa WNW 3.2 km/h 4.8 km/h 68% 0 mm
01:49 -1.8 °C -6.9 °C 1022.6 hPa WNW 1.6 km/h 6.4 km/h 68% 0 mm
01:54 -1.7 °C -7.1 °C 1022.2 hPa West 1.6 km/h 6.4 km/h 67% 0 mm
02:04 -1.6 °C -6.9 °C 1022.2 hPa West 3.2 km/h 6.4 km/h 67% 0 mm
02:09 -1.6 °C -6.9 °C 1022.2 hPa WNW 1.6 km/h 6.4 km/h 67% 0 mm
02:14 -1.6 °C -6.9 °C 1022.6 hPa Calm   6.4 km/h 67% 0 mm
02:24 -1.4 °C -6.8 °C 1022.6 hPa WNW 6.4 km/h 8 km/h 67% 0 mm
02:29 -1.4 °C -6.7 °C 1022.6 hPa WNW 3.2 km/h 9.7 km/h 67% 0 mm
02:34 -1.3 °C -6.7 °C 1022.6 hPa West 1.6 km/h 9.7 km/h 67% 0 mm
02:39 -1.3 °C -6.8 °C 1022.6 hPa SW 6.4 km/h 11.3 km/h 66% 0 mm
02:49 -1.2 °C -6.7 °C 1022.6 hPa West 4.8 km/h 12.9 km/h 66% 0 mm
02:54 -1.2 °C -6.9 °C 1022.6 hPa West 4.8 km/h 14.5 km/h 65% 0 mm
03:04 -1.1 °C -6.8 °C 1022.6 hPa West 6.4 km/h 12.9 km/h 65% 0 mm
03:09 -1.1 °C -7.1 °C 1022.6 hPa WSW 4.8 km/h 12.9 km/h 64% 0 mm
03:29 -1.1 °C -6.8 °C 1022.2 hPa Calm   3.2 km/h 65% 0 mm
03:44 -1.1 °C -6.8 °C 1022.2 hPa WNW 3.2 km/h 6.4 km/h 65% 0 mm
03:49 -1.1 °C -6.8 °C 1021.9 hPa Calm   6.4 km/h 65% 0 mm
03:54 -1.1 °C -6.8 °C 1021.9 hPa WNW 1.6 km/h 6.4 km/h 65% 0 mm
03:59 -0.9 °C -6.7 °C 1021.9 hPa Calm   6.4 km/h 65% 0 mm
04:04 -0.9 °C -6.7 °C 1021.9 hPa West 1.6 km/h 6.4 km/h 65% 0 mm
04:09 -0.9 °C -6.7 °C 1021.9 hPa West 3.2 km/h 6.4 km/h 65% 0 mm
04:14 -0.9 °C -6.9 °C 1021.9 hPa West 3.2 km/h 6.4 km/h 64% 0 mm
04:19 -0.9 °C -6.7 °C 1021.6 hPa West 1.6 km/h 4.8 km/h 65% 0 mm
04:29 -0.9 °C -6.7 °C 1021.6 hPa WNW 3.2 km/h 6.4 km/h 65% 0 mm
04:34 -0.9 °C -6.9 °C 1021.6 hPa West 4.8 km/h 8 km/h 64% 0 mm
04:39 -0.9 °C -6.8 °C 1021.6 hPa WNW 1.6 km/h 6.4 km/h 64% 0 mm
04:44 -0.9 °C -6.8 °C 1021.6 hPa Calm   9.7 km/h 64% 0 mm
04:49 -0.9 °C -6.8 °C 1021.6 hPa West 4.8 km/h 11.3 km/h 64% 0 mm
04:54 -0.9 °C -6.8 °C 1021.6 hPa West 3.2 km/h 11.3 km/h 64% 0 mm
04:59 -0.9 °C -6.8 °C 1021.2 hPa WSW 4.8 km/h 11.3 km/h 64% 0 mm
05:04 -0.9 °C -6.8 °C 1021.6 hPa WSW 4.8 km/h 11.3 km/h 64% 0 mm
05:09 -0.9 °C -6.7 °C 1021.2 hPa West 3.2 km/h 8 km/h 65% 0 mm
05:14 -0.9 °C -6.7 °C 1021.2 hPa West 1.6 km/h 6.4 km/h 65% 0 mm
05:19 -0.9 °C -6.7 °C 1021.2 hPa West 1.6 km/h 8 km/h 65% 0 mm
05:24 -1 °C -6.8 °C 1021.2 hPa WSW 1.6 km/h 4.8 km/h 65% 0 mm
05:29 -0.9 °C -6.7 °C 1021.2 hPa WSW 1.6 km/h 6.4 km/h 65% 0 mm
05:34 -0.9 °C -6.7 °C 1021.2 hPa WSW 3.2 km/h 8 km/h 65% 0 mm
05:44 -0.8 °C -6.6 °C 1021.2 hPa Calm   11.3 km/h 65% 0 mm
05:49 -0.8 °C -6.6 °C 1021.2 hPa WSW 4.8 km/h 8 km/h 65% 0 mm
05:54 -0.8 °C -6.6 °C 1021.2 hPa Calm   8 km/h 65% 0 mm
05:59 -0.8 °C -6.6 °C 1020.9 hPa WSW 3.2 km/h 8 km/h 65% 0 mm
06:04 -0.8 °C -6.7 °C 1020.9 hPa WSW 3.2 km/h 11.3 km/h 64% 0 mm
06:14 -0.9 °C -6.3 °C 1020.9 hPa WSW 1.6 km/h 6.4 km/h 67% 0 mm
06:24 -1.2 °C -6.1 °C 1020.9 hPa Calm   4.8 km/h 69% 0 mm
06:29 -1.2 °C -6 °C 1020.5 hPa Calm     70% 0 mm
06:34 -1.3 °C -5.9 °C 1020.5 hPa Calm     71% 0 mm
06:39 -1.3 °C -5.7 °C 1020.5 hPa Calm     72% 0 mm
06:44 -1.4 °C -5.8 °C 1020.5 hPa Calm   4.8 km/h 72% 0 mm
06:49 -1.4 °C -5.7 °C 1020.5 hPa Calm     73% 0 mm
06:54 -1.4 °C -5.7 °C 1020.5 hPa Calm   3.2 km/h 73% 0 mm
06:59 -1.4 °C -5.7 °C 1020.5 hPa Calm   3.2 km/h 73% 0 mm
07:09 -1.4 °C -5.5 °C 1020.5 hPa Calm     74% 0 mm
07:14 -1.4 °C -5.5 °C 1020.5 hPa Calm     74% 0 mm
07:29 -1.4 °C -5.5 °C 1020.5 hPa Calm     74% 0 mm
07:34 -1.5 °C -5.6 °C 1020.5 hPa Calm     74% 0 mm
07:39 -1.4 °C -5.5 °C 1020.5 hPa Calm     74% 0 mm
07:49 -1.4 °C -5.5 °C 1020.5 hPa Calm     74% 0 mm
07:54 -1.4 °C -5.4 °C 1020.9 hPa Calm   4.8 km/h 74% 0 mm
07:59 -1.3 °C -5.4 °C 1020.9 hPa Calm     74% 0 mm
08:04 -1.3 °C -5.3 °C 1020.9 hPa SSW 1.6 km/h 4.8 km/h 74% 0 mm
08:14 -1.2 °C -5.2 °C 1020.9 hPa SSW 1.6 km/h 4.8 km/h 74% 0 mm
08:19 -1.1 °C -5.2 °C 1020.9 hPa SSW 1.6 km/h 4.8 km/h 74% 0 mm
08:24 -1 °C -5.1 °C 1020.9 hPa SSW 1.6 km/h 6.4 km/h 74% 0 mm
08:29 -0.9 °C -5.2 °C 1020.9 hPa SSW 1.6 km/h 6.4 km/h 73% 0 mm
08:34 -0.9 °C -5.2 °C 1021.2 hPa South 1.6 km/h 6.4 km/h 73% 0 mm
08:39 -0.9 °C -5.1 °C 1021.2 hPa Calm   4.8 km/h 73% 0 mm
08:44 -0.9 °C -5.1 °C 1020.9 hPa Calm   4.8 km/h 73% 0 mm
08:49 -0.8 °C -4.9 °C 1020.9 hPa Calm     74% 0 mm
08:54 -0.8 °C -4.8 °C 1020.9 hPa Calm     74% 0 mm
08:59 -0.8 °C -4.8 °C 1020.9 hPa Calm     74% 0 mm
09:14 -0.8 °C -4.8 °C 1020.9 hPa Calm   3.2 km/h 74% 0 mm
09:24 -0.8 °C -4.8 °C 1020.5 hPa Calm     74% 0 mm
09:29 -0.7 °C -4.8 °C 1020.5 hPa Calm     74% 0 mm
09:34 -0.7 °C -4.6 °C 1020.5 hPa SSW 1.6 km/h 3.2 km/h 75% 0 mm
09:49 -0.6 °C -4.7 °C 1020.2 hPa SSW 1.6 km/h 6.4 km/h 74% 0 mm
09:54 -0.6 °C -4.5 °C 1020.2 hPa SSW 1.6 km/h 6.4 km/h 75% 0 mm
09:59 -0.6 °C -4.6 °C 1020.2 hPa Calm   4.8 km/h 74% 0 mm
10:04 -0.5 °C -4.6 °C 1020.2 hPa Calm   4.8 km/h 74% 0 mm
10:24 -0.4 °C -4.4 °C 1019.9 hPa South 3.2 km/h 8 km/h 74% 0 mm
10:29 -0.3 °C -4.2 °C 1019.5 hPa South 3.2 km/h 8 km/h 75% 0 mm
10:39 -0.2 °C -4.1 °C 1019.5 hPa South 3.2 km/h 8 km/h 75% 0 mm
10:54 0.1 °C -3.7 °C 1019.2 hPa South 3.2 km/h 8 km/h 76% 0 mm
11:04 0.3 °C -3.6 °C 1019.2 hPa SSW 4.8 km/h 8 km/h 75% 0 mm
11:14 0.4 °C -3.6 °C 1019.2 hPa South 3.2 km/h 4.8 km/h 75% 0 mm
11:19 0.4 °C -3.5 °C 1018.8 hPa SSW 11.3 km/h 11.3 km/h 75% 0 mm
11:29 0.4 °C -3.5 °C 1018.5 hPa South 4.8 km/h 11.3 km/h 75% 0 mm
11:39 0.4 °C -3.6 °C 1018.5 hPa SSE 4.8 km/h 9.7 km/h 75% 0 mm
11:44 0.4 °C -3.5 °C 1018.5 hPa South 3.2 km/h 8 km/h 75% 0 mm
11:59 0.6 °C -3.4 °C 1018.2 hPa SSW 4.8 km/h 12.9 km/h 75% 0 mm
12:04 0.6 °C -3.4 °C 1018.2 hPa SSW 4.8 km/h 9.7 km/h 75% 0 mm
12:14 0.6 °C -3.6 °C 1017.8 hPa SW 3.2 km/h 12.9 km/h 74% 0 mm
12:19 0.6 °C -3.6 °C 1017.8 hPa SSW 6.4 km/h 9.7 km/h 74% 0 mm
12:24 0.6 °C -3.4 °C 1017.8 hPa SSW 6.4 km/h 8 km/h 75% 0 mm
12:34 0.6 °C -3.4 °C 1017.5 hPa SSW 4.8 km/h 11.3 km/h 75% 0 mm
12:49 0.7 °C -3.4 °C 1017.2 hPa South 4.8 km/h 11.3 km/h 74% 0 mm
12:54 0.7 °C -3.4 °C 1017.2 hPa South 4.8 km/h 11.3 km/h 74% 0 mm
12:59 0.8 °C -3.3 °C 1017.2 hPa South 4.8 km/h 9.7 km/h 74% 0 mm
13:04 0.8 °C -3.3 °C 1016.8 hPa South 3.2 km/h 9.7 km/h 74% 0 mm
13:09 0.9 °C -3.2 °C 1016.8 hPa Calm   4.8 km/h 74% 0 mm
13:19 1.1 °C -3.1 °C 1016.8 hPa SSW 4.8 km/h 9.7 km/h 74% 0 mm
13:24 1.2 °C -2.9 °C 1016.8 hPa SW 6.4 km/h 12.9 km/h 74% 0 mm
13:29 1.4 °C -2.7 °C 1016.8 hPa SSW 4.8 km/h 14.5 km/h 74% 0 mm
13:39 1.6 °C -2.9 °C 1016.5 hPa SSW 6.4 km/h 16.1 km/h 72% 0 mm
13:44 1.6 °C -2.9 °C 1016.5 hPa SSW 8 km/h 17.7 km/h 72% 0 mm
13:49 1.5 °C -3.2 °C 1016.5 hPa SSW 8 km/h 17.7 km/h 71% 0 mm
13:54 1.5 °C -3.2 °C 1016.5 hPa SSW 8 km/h 19.3 km/h 71% 0 mm
14:09 1.6 °C -3.3 °C 1016.1 hPa SSW 6.4 km/h 16.1 km/h 70% 0 mm
14:19 1.6 °C -3.3 °C 1016.1 hPa South 4.8 km/h 16.1 km/h 70% 0 mm
14:24 1.6 °C -3.3 °C 1015.8 hPa SW 6.4 km/h 12.9 km/h 70% 0 mm
14:29 1.7 °C -3.2 °C 1015.8 hPa SW 3.2 km/h 14.5 km/h 70% 0 mm
14:39 1.7 °C -3.2 °C 1015.8 hPa SSW 6.4 km/h 16.1 km/h 70% 0 mm
14:44 1.8 °C -3.1 °C 1015.5 hPa SSW 6.4 km/h 16.1 km/h 70% 0 mm
14:49 1.8 °C -3.1 °C 1015.5 hPa SSW 8 km/h 17.7 km/h 70% 0 mm
14:54 1.9 °C -3.2 °C 1015.5 hPa SSW 8 km/h 17.7 km/h 69% 0 mm
14:59 2 °C -3.1 °C 1015.5 hPa SSW 8 km/h 16.1 km/h 69% 0 mm
15:04 2 °C -3.1 °C 1015.1 hPa SSW 8 km/h 16.1 km/h 69% 0 mm
15:14 2.1 °C -3 °C 1015.1 hPa SW 6.4 km/h 16.1 km/h 69% 0 mm
15:19 2.2 °C -3.1 °C 1015.1 hPa SSW 8 km/h 19.3 km/h 68% 0 mm
15:24 2.2 °C -3.1 °C 1015.5 hPa SW 6.4 km/h 14.5 km/h 68% 0 mm
15:29 2.3 °C -2.8 °C 1015.5 hPa WSW 4.8 km/h 12.9 km/h 69% 0 mm
15:34 2.4 °C -2.6 °C 1015.5 hPa SW 8 km/h 17.7 km/h 70% 0 mm
15:39 2.6 °C -2.6 °C 1015.5 hPa SW 9.7 km/h 19.3 km/h 69% 0 mm
15:44 2.6 °C -2.7 °C 1015.5 hPa SSW 9.7 km/h 24.1 km/h 68% 0 mm
15:49 2.6 °C -2.7 °C 1015.5 hPa SW 9.7 km/h 24.1 km/h 68% 0 mm
15:59 2.7 °C -2.8 °C 1015.1 hPa SW 3.2 km/h 19.3 km/h 67% 0 mm
16:04 2.6 °C -2.9 °C 1015.1 hPa WSW 12.9 km/h 16.1 km/h 67% 0 mm
16:09 2.6 °C -2.9 °C 1015.1 hPa SSW 19.3 km/h 19.3 km/h 67% 0 mm
16:14 2.6 °C -2.9 °C 1015.1 hPa WSW 12.9 km/h 19.3 km/h 67% 0 mm
16:19 2.6 °C -2.9 °C 1015.1 hPa South 8 km/h 22.5 km/h 67% 0 mm
16:29 2.5 °C -3 °C 1015.1 hPa South 4.8 km/h 16.1 km/h 67% 0 mm
16:34 2.5 °C -3 °C 1015.1 hPa South 12.9 km/h 20.9 km/h 67% 0 mm
16:44 2.5 °C -3 °C 1014.8 hPa SSW 9.7 km/h 17.7 km/h 67% 0 mm
16:49 2.4 °C -3.1 °C 1015.1 hPa SSW 9.7 km/h 24.1 km/h 67% 0 mm
16:54 2.4 °C -3.1 °C 1014.8 hPa SW 9.7 km/h 24.1 km/h 67% 0 mm
16:59 2.4 °C -3.1 °C 1014.8 hPa SSW 8 km/h 17.7 km/h 67% 0 mm
17:04 2.4 °C -3.1 °C 1014.8 hPa SSW 8 km/h 17.7 km/h 67% 0 mm
17:14 2.4 °C -3.1 °C 1014.8 hPa SSW 11.3 km/h 19.3 km/h 67% 0 mm
17:24 2.4 °C -3.3 °C 1014.8 hPa SW 8 km/h 20.9 km/h 66% 0 mm
17:29 2.4 °C -3.3 °C 1015.1 hPa SSW 17.7 km/h 19.3 km/h 66% 0 mm
17:44 2.4 °C -3.3 °C 1015.1 hPa SW 9.7 km/h 25.7 km/h 66% 0 mm
17:49 2.4 °C -3.3 °C 1015.1 hPa SSW 8 km/h 25.7 km/h 66% 0 mm
17:54 2.4 °C -3.3 °C 1015.1 hPa SW 8 km/h 24.1 km/h 66% 0 mm
18:04 2.4 °C -3.3 °C 1015.1 hPa SW 6.4 km/h 17.7 km/h 66% 0 mm
18:09 2.4 °C -3.5 °C 1015.5 hPa SW 8 km/h 19.3 km/h 65% 0 mm
18:19 2.4 °C -3.7 °C 1015.1 hPa SW 6.4 km/h 16.1 km/h 64% 0 mm
18:24 2.4 °C -3.7 °C 1015.5 hPa SSW 3.2 km/h 19.3 km/h 64% 0 mm
18:29 2.4 °C -3.7 °C 1015.5 hPa SW 8 km/h 16.1 km/h 64% 0 mm
18:34 2.5 °C -3.6 °C 1015.5 hPa SW 6.4 km/h 16.1 km/h 64% 0 mm
18:39 2.5 °C -3.8 °C 1015.5 hPa SW 8 km/h 17.7 km/h 63% 0 mm
18:44 2.4 °C -3.7 °C 1015.5 hPa SW 6.4 km/h 17.7 km/h 64% 0 mm
18:49 2.5 °C -3.6 °C 1015.5 hPa SSW 8 km/h 16.1 km/h 64% 0 mm
18:59 2.4 °C -3.7 °C 1015.5 hPa South 8 km/h 16.1 km/h 64% 0 mm
19:04 2.4 °C -3.7 °C 1015.5 hPa South 3.2 km/h 12.9 km/h 64% 0 mm
19:09 2.4 °C -3.7 °C 1015.5 hPa SSW 4.8 km/h 12.9 km/h 64% 0 mm
19:14 2.4 °C -3.7 °C 1015.5 hPa SSW 4.8 km/h 12.9 km/h 64% 0 mm
19:29 2.4 °C -3.7 °C 1015.5 hPa SSW 4.8 km/h 14.5 km/h 64% 0 mm
19:44 2.4 °C -3.7 °C 1015.5 hPa SSW 6.4 km/h 14.5 km/h 64% 0 mm
19:49 2.4 °C -3.7 °C 1015.5 hPa SSW 6.4 km/h 17.7 km/h 64% 0 mm
19:54 2.4 °C -3.5 °C 1015.5 hPa SSW 11.3 km/h 14.5 km/h 65% 0 mm
19:59 2.4 °C -3.5 °C 1015.5 hPa SW 4.8 km/h 14.5 km/h 65% 0 mm
20:04 2.4 °C -3.7 °C 1015.5 hPa South 8 km/h 17.7 km/h 64% 0 mm
20:09 2.5 °C -3.6 °C 1015.5 hPa SSW 4.8 km/h 14.5 km/h 64% 0 mm
20:14 2.5 °C -3.6 °C 1015.5 hPa SSW 6.4 km/h 14.5 km/h 64% 0 mm
20:19 2.4 °C -3.7 °C 1015.5 hPa SSW 6.4 km/h 16.1 km/h 64% 0 mm
20:29 2.4 °C -3.7 °C 1015.5 hPa South 8 km/h 11.3 km/h 64% 0 mm
20:34 2.5 °C -3.6 °C 1015.8 hPa SW 12.9 km/h 12.9 km/h 64% 0 mm
20:39 2.5 °C -3.8 °C 1015.5 hPa SSW 6.4 km/h 14.5 km/h 63% 0 mm
20:49 2.4 °C -3.9 °C 1015.5 hPa SSW 4.8 km/h 16.1 km/h 63% 0 mm
20:54 2.4 °C -3.9 °C 1015.5 hPa SSW 6.4 km/h 16.1 km/h 63% 0 mm
21:04 2.4 °C -3.9 °C 1015.1 hPa SSW 9.7 km/h 14.5 km/h 63% 0 mm
21:14 2.5 °C -3.8 °C 1015.1 hPa SSW 8 km/h 14.5 km/h 63% 0 mm
21:29 2.6 °C -3.8 °C 1015.1 hPa SSW 11.3 km/h 17.7 km/h 63% 0 mm
21:34 2.6 °C -3.7 °C 1015.1 hPa SSW 4.8 km/h 19.3 km/h 63% 0 mm
21:39 2.7 °C -3.7 °C 1015.1 hPa WSW 9.7 km/h 19.3 km/h 63% 0 mm
21:44 2.7 °C -3.4 °C 1015.1 hPa SSW 8 km/h 19.3 km/h 64% 0 mm
21:49 2.7 °C -3.6 °C 1015.1 hPa SSW 8 km/h 20.9 km/h 63% 0 mm
21:54 2.8 °C -3.4 °C 1015.1 hPa SSW 8 km/h 20.9 km/h 64% 0 mm
22:04 2.8 °C -3.3 °C 1015.1 hPa SSW 8 km/h 19.3 km/h 64% 0 mm
22:09 2.9 °C -3.3 °C 1014.8 hPa SSW 8 km/h 17.7 km/h 64% 0 mm
22:14 2.9 °C -3.2 °C 1014.8 hPa SSW 9.7 km/h 17.7 km/h 64% 0 mm
22:19 3 °C -3.2 °C 1015.1 hPa SSW 9.7 km/h 17.7 km/h 64% 0 mm
22:24 3 °C -3.2 °C 1014.8 hPa SW 8 km/h 12.9 km/h 64% 0 mm
22:29 3 °C -2.9 °C 1014.8 hPa SSW 6.4 km/h 17.7 km/h 65% 0 mm
22:34 3 °C -2.9 °C 1014.8 hPa SSW 9.7 km/h 16.1 km/h 65% 0 mm
22:39 3.1 °C -2.9 °C 1014.8 hPa WSW 8 km/h 19.3 km/h 65% 0 mm
22:44 3.1 °C -2.8 °C 1014.8 hPa SW 8 km/h 17.7 km/h 65% 0 mm
22:54 3.2 °C -2.8 °C 1014.8 hPa SW 8 km/h 19.3 km/h 65% 0 mm
22:59 3.3 °C -2.9 °C 1014.8 hPa SW 9.7 km/h 19.3 km/h 64% 0 mm
23:04 3.3 °C -2.9 °C 1015.1 hPa SSW 8 km/h 14.5 km/h 64% 0 mm
23:14 3.3 °C -2.9 °C 1015.1 hPa SW 4.8 km/h 19.3 km/h 64% 0 mm
23:24 3.3 °C -2.9 °C 1015.1 hPa SW 8 km/h 14.5 km/h 64% 0 mm
23:29 3.3 °C -2.8 °C 1015.1 hPa WSW 6.4 km/h 14.5 km/h 64% 0 mm
23:34 3.3 °C -2.8 °C 1015.1 hPa WSW 6.4 km/h 12.9 km/h 64% 0 mm
23:39 3.4 °C -2.6 °C 1015.1 hPa West 3.2 km/h 12.9 km/h 65% 0 mm
23:49 3.4 °C -2.6 °C 1015.1 hPa SW 6.4 km/h 16.1 km/h 65% 0 mm
23:54 3.4 °C -2.6 °C 1015.1 hPa SW 6.4 km/h 16.1 km/h 65% 0 mm
23:59 3.4 °C -2.5 °C 1015.1 hPa SW 4.8 km/h 14.5 km/h 65% 0 mm
Buffalo, New York, USA
Compliments of Weather Underground - 2 mb